Goloson International Airport


Codes: MHLC/LCE
Name: Goloson International Airport
City: La Ceiba
Country: Honduras
Elevation: 49 ft.
Wikipedia:

Photos at Goloson International Airport


   Photos courtesy of SpottingLog. You can add your own sightings and photos by signing up for a free trial today.



No photos found.

Weather at Goloson International Airport


Time (UTC)DescriptionTempratureWindCloud coverageVisibilityPressureHumidity
26-Jun-2024 00:00Light Rain29°C7 mph, NE100%10000m1012hPa85%
26-Jun-2024 03:00Light Rain28°C4 mph, SE94%10000m1013hPa86%
26-Jun-2024 06:00Overcast Clouds27°C4 mph, SW89%10000m1013hPa83%
26-Jun-2024 09:00Scattered Clouds26°C2 mph, S47%10000m1012hPa84%
26-Jun-2024 12:00Scattered Clouds27°C2 mph, S29%10000m1013hPa83%
26-Jun-2024 15:00Scattered Clouds30°C4 mph, N27%10000m1014hPa72%
26-Jun-2024 18:00Light Rain28°C4 mph, N32%10000m1013hPa90%
26-Jun-2024 21:00Light Rain29°C7 mph, NE70%10000m1011hPa82%
27-Jun-2024 00:00Moderate Rain28°C9 mph, NE80%10000m1011hPa86%
27-Jun-2024 03:00Light Rain27°C7 mph, SE98%10000m1011hPa87%
27-Jun-2024 06:00Overcast Clouds27°C4 mph, SW92%10000m1012hPa83%
27-Jun-2024 09:00Overcast Clouds26°C4 mph, S100%10000m1010hPa82%
27-Jun-2024 12:00Overcast Clouds26°C2 mph, S100%10000m1011hPa80%
27-Jun-2024 15:00Overcast Clouds29°C4 mph, N97%10000m1012hPa73%
27-Jun-2024 18:00Light Rain27°C4 mph, NE98%10000m1011hPa87%
27-Jun-2024 21:00Light Rain28°C11 mph, NE100%10000m1010hPa83%
28-Jun-2024 00:00Light Rain27°C7 mph, NE100%10000m1010hPa85%
28-Jun-2024 03:00Light Rain26°C7 mph, NE100%10000m1011hPa86%
28-Jun-2024 06:00Overcast Clouds26°C4 mph, SE98%10000m1010hPa82%
28-Jun-2024 09:00Light Rain26°C4 mph, S100%10000m1008hPa79%
28-Jun-2024 12:00Overcast Clouds26°C2 mph, SW98%10000m1009hPa80%
28-Jun-2024 15:00Broken Clouds28°C4 mph, NW65%10000m1010hPa72%
28-Jun-2024 18:00Light Rain28°C4 mph, NW56%10000m1009hPa80%
28-Jun-2024 21:00Light Rain28°C4 mph, NW40%10000m1007hPa81%
29-Jun-2024 00:00Moderate Rain27°C2 mph, NW65%10000m1008hPa86%
29-Jun-2024 03:00Moderate Rain26°C4 mph, E100%10000m1010hPa88%
29-Jun-2024 06:00Light Rain26°C4 mph, SE100%10000m1009hPa85%
29-Jun-2024 09:00Moderate Rain26°C2 mph, S100%10000m1009hPa87%
29-Jun-2024 12:00Overcast Clouds26°C2 mph, S100%10000m1010hPa82%
29-Jun-2024 15:00Light Rain27°C2 mph, SE100%10000m1011hPa81%
29-Jun-2024 18:00Light Rain30°C4 mph, SE100%10000m1011hPa68%
29-Jun-2024 21:00Light Rain29°C4 mph, NE92%10000m1009hPa79%
30-Jun-2024 00:00Light Rain28°C4 mph, S94%10000m1010hPa83%
30-Jun-2024 03:00Light Rain27°C4 mph, SE100%10000m1012hPa82%
30-Jun-2024 06:00Overcast Clouds27°C7 mph, SE99%10000m1012hPa82%
30-Jun-2024 09:00Light Rain26°C7 mph, S100%10000m1011hPa81%
30-Jun-2024 12:00Light Rain26°C7 mph, S100%10000m1012hPa82%
30-Jun-2024 15:00Overcast Clouds28°C2 mph, SW99%10000m1013hPa72%
30-Jun-2024 18:00Overcast Clouds30°C7 mph, N94%10000m1013hPa63%
30-Jun-2024 21:00Light Rain28°C9 mph, NE75%10000m1011hPa82%